sensor_id;sensor_type;location;lat;lon;timestamp;P1;durP1;ratioP1;P2;durP2;ratioP2
18647;SDS011;9453;50.294;18.644;2022-07-29T04:03:09;3.40;;;1.52;;
18647;SDS011;9453;50.294;18.644;2022-07-29T04:05:37;8.35;;;1.63;;
18647;SDS011;9453;50.294;18.644;2022-07-29T04:08:04;6.57;;;1.48;;
18647;SDS011;9453;50.294;18.644;2022-07-29T04:10:31;11.45;;;2.30;;
18647;SDS011;9453;50.294;18.644;2022-07-29T04:12:58;5.85;;;1.70;;
18647;SDS011;9453;50.294;18.644;2022-07-29T04:15:25;5.93;;;1.75;;
18647;SDS011;9453;50.294;18.644;2022-07-29T04:17:53;7.22;;;2.35;;
18647;SDS011;9453;50.294;18.644;2022-07-29T04:20:22;8.23;;;2.05;;
18647;SDS011;9453;50.294;18.644;2022-07-29T04:22:48;4.30;;;1.63;;
18647;SDS011;9453;50.294;18.644;2022-07-29T04:25:15;3.05;;;1.60;;
18647;SDS011;9453;50.294;18.644;2022-07-29T04:27:42;6.18;;;1.20;;
18647;SDS011;9453;50.294;18.644;2022-07-29T04:30:23;6.22;;;1.60;;
18647;SDS011;9453;50.294;18.644;2022-07-29T04:32:50;6.90;;;1.63;;
18647;SDS011;9453;50.294;18.644;2022-07-29T04:35:17;3.70;;;1.55;;
18647;SDS011;9453;50.294;18.644;2022-07-29T04:37:45;10.30;;;1.95;;
18647;SDS011;9453;50.294;18.644;2022-07-29T04:40:12;7.88;;;1.65;;
18647;SDS011;9453;50.294;18.644;2022-07-29T04:42:39;4.45;;;1.73;;
18647;SDS011;9453;50.294;18.644;2022-07-29T04:45:06;4.53;;;1.60;;
18647;SDS011;9453;50.294;18.644;2022-07-29T04:47:33;3.80;;;1.48;;
18647;SDS011;9453;50.294;18.644;2022-07-29T04:50:01;4.25;;;1.17;;
18647;SDS011;9453;50.294;18.644;2022-07-29T04:52:28;7.97;;;1.67;;
18647;SDS011;9453;50.294;18.644;2022-07-29T04:54:56;14.30;;;3.13;;
18647;SDS011;9453;50.294;18.644;2022-07-29T04:57:23;13.52;;;2.10;;
18647;SDS011;9453;50.294;18.644;2022-07-29T04:59:50;4.10;;;1.67;;
18647;SDS011;9453;50.294;18.644;2022-07-29T05:04:42;4.85;;;1.90;;
18647;SDS011;9453;50.294;18.644;2022-07-29T05:07:09;8.27;;;1.88;;
18647;SDS011;9453;50.294;18.644;2022-07-29T05:09:36;11.25;;;2.13;;
18647;SDS011;9453;50.294;18.644;2022-07-29T05:12:05;6.05;;;1.50;;
18647;SDS011;9453;50.294;18.644;2022-07-29T05:14:33;4.90;;;1.52;;
18647;SDS011;9453;50.294;18.644;2022-07-29T05:16:59;4.68;;;1.85;;
18647;SDS011;9453;50.294;18.644;2022-07-29T05:19:26;4.38;;;2.00;;
18647;SDS011;9453;50.294;18.644;2022-07-29T05:21:53;2.85;;;1.52;;
18647;SDS011;9453;50.294;18.644;2022-07-29T05:24:20;4.45;;;1.70;;
18647;SDS011;9453;50.294;18.644;2022-07-29T05:26:47;11.90;;;2.25;;
18647;SDS011;9453;50.294;18.644;2022-07-29T05:31:46;8.02;;;2.47;;
18647;SDS011;9453;50.294;18.644;2022-07-29T05:34:13;4.82;;;1.75;;
18647;SDS011;9453;50.294;18.644;2022-07-29T05:36:40;5.90;;;2.10;;
18647;SDS011;9453;50.294;18.644;2022-07-29T05:39:07;5.95;;;1.90;;
18647;SDS011;9453;50.294;18.644;2022-07-29T05:41:34;8.38;;;2.40;;
18647;SDS011;9453;50.294;18.644;2022-07-29T05:44:01;6.22;;;2.20;;
18647;SDS011;9453;50.294;18.644;2022-07-29T05:46:29;14.45;;;3.42;;
18647;SDS011;9453;50.294;18.644;2022-07-29T05:48:57;8.25;;;2.55;;
18647;SDS011;9453;50.294;18.644;2022-07-29T05:51:24;12.35;;;3.00;;
18647;SDS011;9453;50.294;18.644;2022-07-29T05:53:51;6.35;;;2.65;;
18647;SDS011;9453;50.294;18.644;2022-07-29T05:56:18;11.88;;;3.25;;
18647;SDS011;9453;50.294;18.644;2022-07-29T05:58:45;7.75;;;2.47;;
18647;SDS011;9453;50.294;18.644;2022-07-29T06:01:12;5.57;;;2.15;;
18647;SDS011;9453;50.294;18.644;2022-07-29T06:03:39;6.65;;;2.38;;
18647;SDS011;9453;50.294;18.644;2022-07-29T06:06:07;6.60;;;2.33;;
18647;SDS011;9453;50.294;18.644;2022-07-29T06:08:35;12.45;;;2.78;;
18647;SDS011;9453;50.294;18.644;2022-07-29T06:11:02;8.68;;;2.65;;
18647;SDS011;9453;50.294;18.644;2022-07-29T06:13:30;12.48;;;3.30;;
18647;SDS011;9453;50.294;18.644;2022-07-29T06:15:58;15.73;;;3.08;;
18647;SDS011;9453;50.294;18.644;2022-07-29T06:18:25;8.73;;;2.65;;
18647;SDS011;9453;50.294;18.644;2022-07-29T06:20:52;5.57;;;2.35;;
18647;SDS011;9453;50.294;18.644;2022-07-29T06:23:21;7.55;;;2.45;;
18647;SDS011;9453;50.294;18.644;2022-07-29T06:25:48;7.15;;;2.88;;
18647;SDS011;9453;50.294;18.644;2022-07-29T06:28:14;7.47;;;2.85;;
18647;SDS011;9453;50.294;18.644;2022-07-29T06:30:41;6.43;;;1.88;;
18647;SDS011;9453;50.294;18.644;2022-07-29T06:33:08;10.93;;;2.30;;
18647;SDS011;9453;50.294;18.644;2022-07-29T06:35:35;3.38;;;1.73;;
18647;SDS011;9453;50.294;18.644;2022-07-29T06:38:04;8.13;;;1.90;;
18647;SDS011;9453;50.294;18.644;2022-07-29T06:40:32;5.05;;;2.17;;
18647;SDS011;9453;50.294;18.644;2022-07-29T06:43:16;5.07;;;2.67;;
18647;SDS011;9453;50.294;18.644;2022-07-29T06:45:43;4.85;;;1.80;;
18647;SDS011;9453;50.294;18.644;2022-07-29T06:48:10;5.55;;;2.03;;
18647;SDS011;9453;50.294;18.644;2022-07-29T06:50:37;4.25;;;2.15;;
18647;SDS011;9453;50.294;18.644;2022-07-29T06:53:04;6.47;;;2.10;;
18647;SDS011;9453;50.294;18.644;2022-07-29T06:55:33;5.65;;;2.03;;
18647;SDS011;9453;50.294;18.644;2022-07-29T06:58:02;4.57;;;1.88;;
18647;SDS011;9453;50.294;18.644;2022-07-29T07:00:28;4.80;;;2.00;;
18647;SDS011;9453;50.294;18.644;2022-07-29T07:02:55;5.35;;;1.80;;
18647;SDS011;9453;50.294;18.644;2022-07-29T07:05:22;5.05;;;2.05;;
18647;SDS011;9453;50.294;18.644;2022-07-29T07:07:49;5.43;;;2.13;;
18647;SDS011;9453;50.294;18.644;2022-07-29T07:10:16;8.07;;;2.10;;
18647;SDS011;9453;50.294;18.644;2022-07-29T07:12:44;5.10;;;1.90;;
18647;SDS011;9453;50.294;18.644;2022-07-29T07:15:11;6.45;;;1.88;;
18647;SDS011;9453;50.294;18.644;2022-07-29T07:17:38;10.02;;;2.25;;
18647;SDS011;9453;50.294;18.644;2022-07-29T07:20:05;5.82;;;2.15;;
18647;SDS011;9453;50.294;18.644;2022-07-29T07:22:33;3.08;;;1.73;;
18647;SDS011;9453;50.294;18.644;2022-07-29T07:25:00;13.35;;;2.17;;
18647;SDS011;9453;50.294;18.644;2022-07-29T07:27:27;3.78;;;1.90;;
18647;SDS011;9453;50.294;18.644;2022-07-29T07:29:56;2.20;;;1.48;;
18647;SDS011;9453;50.294;18.644;2022-07-29T07:32:23;4.18;;;2.20;;
18647;SDS011;9453;50.294;18.644;2022-07-29T07:34:50;4.32;;;1.77;;
18647;SDS011;9453;50.294;18.644;2022-07-29T07:37:17;4.53;;;2.00;;
18647;SDS011;9453;50.294;18.644;2022-07-29T07:39:45;4.20;;;2.30;;
18647;SDS011;9453;50.294;18.644;2022-07-29T07:42:12;2.42;;;1.70;;
18647;SDS011;9453;50.294;18.644;2022-07-29T07:44:39;4.93;;;1.85;;
18647;SDS011;9453;50.294;18.644;2022-07-29T07:47:07;3.47;;;2.00;;
18647;SDS011;9453;50.294;18.644;2022-07-29T07:49:34;3.88;;;1.90;;
18647;SDS011;9453;50.294;18.644;2022-07-29T07:52:01;3.83;;;1.90;;
18647;SDS011;9453;50.294;18.644;2022-07-29T07:54:28;6.68;;;2.10;;
18647;SDS011;9453;50.294;18.644;2022-07-29T07:56:55;3.88;;;1.90;;
18647;SDS011;9453;50.294;18.644;2022-07-29T07:59:22;5.53;;;2.30;;
18647;SDS011;9453;50.294;18.644;2022-07-29T08:01:49;4.20;;;1.90;;
18647;SDS011;9453;50.294;18.644;2022-07-29T08:04:18;13.15;;;2.10;;
18647;SDS011;9453;50.294;18.644;2022-07-29T08:06:45;6.80;;;2.20;;
18647;SDS011;9453;50.294;18.644;2022-07-29T08:09:13;4.10;;;1.98;;
18647;SDS011;9453;50.294;18.644;2022-07-29T08:11:40;3.28;;;2.05;;
18647;SDS011;9453;50.294;18.644;2022-07-29T08:14:07;5.90;;;1.90;;
18647;SDS011;9453;50.294;18.644;2022-07-29T08:16:34;6.55;;;2.22;;
18647;SDS011;9453;50.294;18.644;2022-07-29T08:19:01;3.85;;;2.30;;
18647;SDS011;9453;50.294;18.644;2022-07-29T08:21:29;5.88;;;2.53;;
18647;SDS011;9453;50.294;18.644;2022-07-29T08:23:56;6.45;;;2.50;;
18647;SDS011;9453;50.294;18.644;2022-07-29T08:26:37;7.45;;;2.25;;
18647;SDS011;9453;50.294;18.644;2022-07-29T08:29:04;4.95;;;2.42;;
18647;SDS011;9453;50.294;18.644;2022-07-29T08:31:31;6.43;;;2.10;;
18647;SDS011;9453;50.294;18.644;2022-07-29T08:33:58;3.92;;;2.15;;
18647;SDS011;9453;50.294;18.644;2022-07-29T08:36:25;5.68;;;2.42;;
18647;SDS011;9453;50.294;18.644;2022-07-29T08:38:54;4.30;;;2.38;;
18647;SDS011;9453;50.294;18.644;2022-07-29T08:41:21;6.20;;;2.28;;
18647;SDS011;9453;50.294;18.644;2022-07-29T08:43:48;3.38;;;2.47;;
18647;SDS011;9453;50.294;18.644;2022-07-29T08:46:15;4.82;;;2.45;;
18647;SDS011;9453;50.294;18.644;2022-07-29T08:48:43;6.55;;;2.45;;
18647;SDS011;9453;50.294;18.644;2022-07-29T08:51:12;4.60;;;2.25;;
18647;SDS011;9453;50.294;18.644;2022-07-29T08:53:41;5.55;;;2.60;;
18647;SDS011;9453;50.294;18.644;2022-07-29T08:56:12;3.78;;;2.50;;
18647;SDS011;9453;50.294;18.644;2022-07-29T08:58:41;7.25;;;2.40;;
18647;SDS011;9453;50.294;18.644;2022-07-29T09:01:09;5.53;;;2.38;;
18647;SDS011;9453;50.294;18.644;2022-07-29T09:03:38;3.95;;;2.63;;
18647;SDS011;9453;50.294;18.644;2022-07-29T09:06:06;6.50;;;2.60;;
18647;SDS011;9453;50.294;18.644;2022-07-29T09:08:34;4.88;;;2.50;;
18647;SDS011;9453;50.294;18.644;2022-07-29T09:11:01;7.38;;;2.60;;
18647;SDS011;9453;50.294;18.644;2022-07-29T09:13:29;11.35;;;3.17;;
18647;SDS011;9453;50.294;18.644;2022-07-29T09:15:56;3.75;;;2.45;;
18647;SDS011;9453;50.294;18.644;2022-07-29T09:18:33;4.75;;;2.35;;
18647;SDS011;9453;50.294;18.644;2022-07-29T09:21:01;4.88;;;2.63;;
18647;SDS011;9453;50.294;18.644;2022-07-29T09:23:59;4.75;;;3.00;;
18647;SDS011;9453;50.294;18.644;2022-07-29T09:26:27;6.68;;;2.90;;
18647;SDS011;9453;50.294;18.644;2022-07-29T09:28:57;4.28;;;2.53;;
18647;SDS011;9453;50.294;18.644;2022-07-29T09:31:31;6.55;;;2.72;;
18647;SDS011;9453;50.294;18.644;2022-07-29T09:34:00;4.55;;;2.50;;
18647;SDS011;9453;50.294;18.644;2022-07-29T09:36:27;12.43;;;2.53;;
18647;SDS011;9453;50.294;18.644;2022-07-29T09:38:57;10.00;;;2.78;;
18647;SDS011;9453;50.294;18.644;2022-07-29T09:41:25;8.35;;;2.63;;
18647;SDS011;9453;50.294;18.644;2022-07-29T09:43:53;4.45;;;2.78;;
18647;SDS011;9453;50.294;18.644;2022-07-29T09:46:22;6.10;;;2.38;;
18647;SDS011;9453;50.294;18.644;2022-07-29T09:49:06;3.88;;;2.33;;
18647;SDS011;9453;50.294;18.644;2022-07-29T09:51:34;5.38;;;2.72;;
18647;SDS011;9453;50.294;18.644;2022-07-29T09:54:02;5.75;;;2.38;;
18647;SDS011;9453;50.294;18.644;2022-07-29T09:56:47;6.82;;;2.70;;
18647;SDS011;9453;50.294;18.644;2022-07-29T09:59:14;8.30;;;2.53;;
18647;SDS011;9453;50.294;18.644;2022-07-29T10:01:42;5.75;;;2.60;;
18647;SDS011;9453;50.294;18.644;2022-07-29T10:04:09;4.93;;;2.92;;
18647;SDS011;9453;50.294;18.644;2022-07-29T10:09:21;5.50;;;2.45;;
18647;SDS011;9453;50.294;18.644;2022-07-29T10:12:01;7.70;;;3.55;;
18647;SDS011;9453;50.294;18.644;2022-07-29T10:14:33;3.60;;;2.42;;
18647;SDS011;9453;50.294;18.644;2022-07-29T10:17:02;9.07;;;2.85;;
18647;SDS011;9453;50.294;18.644;2022-07-29T10:19:31;8.98;;;2.67;;
18647;SDS011;9453;50.294;18.644;2022-07-29T10:22:00;5.60;;;2.80;;
18647;SDS011;9453;50.294;18.644;2022-07-29T10:24:29;5.00;;;2.70;;
18647;SDS011;9453;50.294;18.644;2022-07-29T10:26:57;4.53;;;2.78;;
18647;SDS011;9453;50.294;18.644;2022-07-29T10:29:26;3.22;;;2.53;;
18647;SDS011;9453;50.294;18.644;2022-07-29T10:31:57;7.78;;;2.85;;
18647;SDS011;9453;50.294;18.644;2022-07-29T10:38:10;5.50;;;3.15;;
18647;SDS011;9453;50.294;18.644;2022-07-29T10:40:51;3.17;;;2.47;;
18647;SDS011;9453;50.294;18.644;2022-07-29T10:43:41;8.93;;;3.30;;
18647;SDS011;9453;50.294;18.644;2022-07-29T10:46:11;7.43;;;3.00;;
18647;SDS011;9453;50.294;18.644;2022-07-29T10:57:15;4.85;;;2.85;;
18647;SDS011;9453;50.294;18.644;2022-07-29T10:59:45;4.57;;;2.58;;
18647;SDS011;9453;50.294;18.644;2022-07-29T11:05:13;5.00;;;2.50;;
18647;SDS011;9453;50.294;18.644;2022-07-29T11:10:45;5.13;;;2.63;;
18647;SDS011;9453;50.294;18.644;2022-07-29T11:13:13;5.72;;;2.85;;
18647;SDS011;9453;50.294;18.644;2022-07-29T11:16:13;4.30;;;2.78;;
18647;SDS011;9453;50.294;18.644;2022-07-29T11:21:44;3.38;;;2.70;;
18647;SDS011;9453;50.294;18.644;2022-07-29T11:24:15;3.22;;;2.33;;
18647;SDS011;9453;50.294;18.644;2022-07-29T11:26:44;4.30;;;2.60;;
18647;SDS011;9453;50.294;18.644;2022-07-29T11:29:16;4.60;;;2.30;;
18647;SDS011;9453;50.294;18.644;2022-07-29T11:31:47;3.15;;;2.20;;
18647;SDS011;9453;50.294;18.644;2022-07-29T11:34:23;3.20;;;2.17;;
18647;SDS011;9453;50.294;18.644;2022-07-29T11:39:41;4.38;;;2.47;;
18647;SDS011;9453;50.294;18.644;2022-07-29T11:45:06;4.18;;;2.80;;
18647;SDS011;9453;50.294;18.644;2022-07-29T11:47:35;3.20;;;2.20;;
18647;SDS011;9453;50.294;18.644;2022-07-29T11:50:04;4.32;;;2.78;;
18647;SDS011;9453;50.294;18.644;2022-07-29T11:52:33;7.95;;;2.70;;
18647;SDS011;9453;50.294;18.644;2022-07-29T11:55:02;5.65;;;2.08;;
18647;SDS011;9453;50.294;18.644;2022-07-29T11:57:31;2.90;;;2.53;;
18647;SDS011;9453;50.294;18.644;2022-07-29T12:00:02;11.63;;;3.58;;
18647;SDS011;9453;50.294;18.644;2022-07-29T12:02:40;10.77;;;2.95;;
18647;SDS011;9453;50.294;18.644;2022-07-29T12:05:08;6.63;;;2.95;;
18647;SDS011;9453;50.294;18.644;2022-07-29T12:07:36;11.13;;;3.08;;
18647;SDS011;9453;50.294;18.644;2022-07-29T12:10:04;7.47;;;3.28;;
18647;SDS011;9453;50.294;18.644;2022-07-29T12:12:32;6.47;;;3.10;;
18647;SDS011;9453;50.294;18.644;2022-07-29T12:15:11;8.90;;;2.85;;
18647;SDS011;9453;50.294;18.644;2022-07-29T12:17:45;8.27;;;2.97;;
18647;SDS011;9453;50.294;18.644;2022-07-29T12:20:11;8.13;;;3.38;;
18647;SDS011;9453;50.294;18.644;2022-07-29T12:22:42;11.35;;;3.45;;
18647;SDS011;9453;50.294;18.644;2022-07-29T12:25:10;12.65;;;3.20;;
18647;SDS011;9453;50.294;18.644;2022-07-29T12:27:39;8.68;;;3.08;;
18647;SDS011;9453;50.294;18.644;2022-07-29T12:30:08;4.68;;;2.80;;
18647;SDS011;9453;50.294;18.644;2022-07-29T12:32:39;8.85;;;2.97;;
18647;SDS011;9453;50.294;18.644;2022-07-29T12:35:09;5.70;;;2.85;;
18647;SDS011;9453;50.294;18.644;2022-07-29T12:37:39;6.78;;;2.60;;
18647;SDS011;9453;50.294;18.644;2022-07-29T12:40:08;9.27;;;3.08;;
18647;SDS011;9453;50.294;18.644;2022-07-29T12:42:36;7.47;;;2.88;;
18647;SDS011;9453;50.294;18.644;2022-07-29T12:45:04;6.93;;;2.80;;
18647;SDS011;9453;50.294;18.644;2022-07-29T12:47:33;12.68;;;2.97;;
18647;SDS011;9453;50.294;18.644;2022-07-29T12:50:16;7.40;;;2.78;;
18647;SDS011;9453;50.294;18.644;2022-07-29T12:52:44;11.27;;;3.03;;
18647;SDS011;9453;50.294;18.644;2022-07-29T12:55:11;5.68;;;3.15;;
18647;SDS011;9453;50.294;18.644;2022-07-29T12:57:44;4.55;;;2.97;;
18647;SDS011;9453;50.294;18.644;2022-07-29T13:00:13;6.57;;;2.85;;
18647;SDS011;9453;50.294;18.644;2022-07-29T13:05:39;6.63;;;2.50;;
18647;SDS011;9453;50.294;18.644;2022-07-29T13:08:11;8.45;;;3.47;;
18647;SDS011;9453;50.294;18.644;2022-07-29T13:10:38;5.75;;;2.78;;
18647;SDS011;9453;50.294;18.644;2022-07-29T13:13:06;7.60;;;2.60;;
18647;SDS011;9453;50.294;18.644;2022-07-29T13:15:35;9.23;;;2.42;;
18647;SDS011;9453;50.294;18.644;2022-07-29T13:18:04;9.85;;;2.83;;
18647;SDS011;9453;50.294;18.644;2022-07-29T13:20:31;6.68;;;3.22;;
18647;SDS011;9453;50.294;18.644;2022-07-29T13:23:00;10.55;;;3.42;;
18647;SDS011;9453;50.294;18.644;2022-07-29T13:25:27;10.23;;;3.75;;
18647;SDS011;9453;50.294;18.644;2022-07-29T13:27:56;11.05;;;3.22;;
18647;SDS011;9453;50.294;18.644;2022-07-29T13:30:24;7.95;;;3.38;;
18647;SDS011;9453;50.294;18.644;2022-07-29T13:32:51;5.57;;;3.08;;
18647;SDS011;9453;50.294;18.644;2022-07-29T13:35:21;7.28;;;3.10;;
18647;SDS011;9453;50.294;18.644;2022-07-29T13:37:48;7.60;;;3.00;;
18647;SDS011;9453;50.294;18.644;2022-07-29T13:40:15;7.03;;;3.35;;
18647;SDS011;9453;50.294;18.644;2022-07-29T13:42:42;7.50;;;3.00;;
18647;SDS011;9453;50.294;18.644;2022-07-29T13:45:09;8.10;;;2.90;;
18647;SDS011;9453;50.294;18.644;2022-07-29T13:47:37;7.25;;;3.30;;
18647;SDS011;9453;50.294;18.644;2022-07-29T13:50:05;3.90;;;2.90;;
18647;SDS011;9453;50.294;18.644;2022-07-29T13:52:36;7.18;;;2.88;;
18647;SDS011;9453;50.294;18.644;2022-07-29T13:55:04;10.93;;;3.20;;
18647;SDS011;9453;50.294;18.644;2022-07-29T13:57:31;6.22;;;2.72;;
18647;SDS011;9453;50.294;18.644;2022-07-29T13:59:58;9.43;;;2.85;;
18647;SDS011;9453;50.294;18.644;2022-07-29T14:02:26;10.43;;;3.10;;
18647;SDS011;9453;50.294;18.644;2022-07-29T14:04:53;10.70;;;2.83;;
18647;SDS011;9453;50.294;18.644;2022-07-29T14:07:20;4.25;;;2.88;;
18647;SDS011;9453;50.294;18.644;2022-07-29T14:09:48;3.80;;;2.70;;
18647;SDS011;9453;50.294;18.644;2022-07-29T14:12:16;4.55;;;2.35;;
18647;SDS011;9453;50.294;18.644;2022-07-29T14:14:43;5.72;;;2.63;;
18647;SDS011;9453;50.294;18.644;2022-07-29T14:17:10;6.70;;;3.28;;
18647;SDS011;9453;50.294;18.644;2022-07-29T14:19:37;9.95;;;3.15;;
18647;SDS011;9453;50.294;18.644;2022-07-29T14:22:04;6.95;;;2.92;;
18647;SDS011;9453;50.294;18.644;2022-07-29T14:24:31;5.35;;;2.95;;
18647;SDS011;9453;50.294;18.644;2022-07-29T14:27:00;4.80;;;3.15;;
18647;SDS011;9453;50.294;18.644;2022-07-29T14:29:27;5.57;;;3.45;;
18647;SDS011;9453;50.294;18.644;2022-07-29T14:31:54;7.97;;;3.90;;
18647;SDS011;9453;50.294;18.644;2022-07-29T14:34:21;7.15;;;3.05;;
18647;SDS011;9453;50.294;18.644;2022-07-29T14:36:48;4.53;;;2.90;;
18647;SDS011;9453;50.294;18.644;2022-07-29T14:39:14;9.70;;;3.88;;
18647;SDS011;9453;50.294;18.644;2022-07-29T14:41:42;5.53;;;2.83;;
18647;SDS011;9453;50.294;18.644;2022-07-29T14:44:10;6.72;;;3.40;;
18647;SDS011;9453;50.294;18.644;2022-07-29T14:46:37;6.72;;;3.95;;
18647;SDS011;9453;50.294;18.644;2022-07-29T14:49:04;9.60;;;3.63;;
18647;SDS011;9453;50.294;18.644;2022-07-29T14:51:31;5.18;;;2.75;;
18647;SDS011;9453;50.294;18.644;2022-07-29T14:53:58;7.90;;;3.03;;
18647;SDS011;9453;50.294;18.644;2022-07-29T14:56:25;6.40;;;3.22;;
18647;SDS011;9453;50.294;18.644;2022-07-29T14:58:54;6.35;;;3.30;;
18647;SDS011;9453;50.294;18.644;2022-07-29T15:01:23;6.10;;;2.97;;
18647;SDS011;9453;50.294;18.644;2022-07-29T15:03:50;5.18;;;3.00;;
18647;SDS011;9453;50.294;18.644;2022-07-29T15:06:19;5.40;;;2.75;;
18647;SDS011;9453;50.294;18.644;2022-07-29T15:08:46;7.35;;;2.63;;
18647;SDS011;9453;50.294;18.644;2022-07-29T15:11:12;7.10;;;2.92;;
18647;SDS011;9453;50.294;18.644;2022-07-29T15:13:39;3.60;;;2.58;;
18647;SDS011;9453;50.294;18.644;2022-07-29T15:16:06;7.35;;;3.20;;
18647;SDS011;9453;50.294;18.644;2022-07-29T15:18:35;9.30;;;3.42;;
18647;SDS011;9453;50.294;18.644;2022-07-29T15:21:03;14.55;;;3.85;;
18647;SDS011;9453;50.294;18.644;2022-07-29T15:23:31;7.55;;;2.72;;
18647;SDS011;9453;50.294;18.644;2022-07-29T15:26:00;7.47;;;2.95;;
18647;SDS011;9453;50.294;18.644;2022-07-29T15:28:27;6.00;;;2.80;;
18647;SDS011;9453;50.294;18.644;2022-07-29T15:30:54;6.13;;;3.00;;
18647;SDS011;9453;50.294;18.644;2022-07-29T15:33:21;8.40;;;3.08;;
18647;SDS011;9453;50.294;18.644;2022-07-29T15:35:49;8.95;;;3.58;;
18647;SDS011;9453;50.294;18.644;2022-07-29T15:38:16;7.47;;;3.30;;
18647;SDS011;9453;50.294;18.644;2022-07-29T15:40:43;4.65;;;2.95;;
18647;SDS011;9453;50.294;18.644;2022-07-29T15:43:11;4.30;;;2.50;;
18647;SDS011;9453;50.294;18.644;2022-07-29T15:45:38;5.32;;;2.53;;
18647;SDS011;9453;50.294;18.644;2022-07-29T15:48:07;5.55;;;2.70;;
18647;SDS011;9453;50.294;18.644;2022-07-29T15:50:34;5.10;;;2.90;;
18647;SDS011;9453;50.294;18.644;2022-07-29T15:53:03;6.45;;;3.17;;
18647;SDS011;9453;50.294;18.644;2022-07-29T15:55:29;6.20;;;3.03;;
18647;SDS011;9453;50.294;18.644;2022-07-29T15:57:56;5.00;;;2.72;;
18647;SDS011;9453;50.294;18.644;2022-07-29T16:00:23;8.57;;;3.03;;
18647;SDS011;9453;50.294;18.644;2022-07-29T16:02:50;3.28;;;2.53;;
18647;SDS011;9453;50.294;18.644;2022-07-29T16:05:17;4.60;;;2.97;;
18647;SDS011;9453;50.294;18.644;2022-07-29T16:07:44;10.63;;;3.50;;
18647;SDS011;9453;50.294;18.644;2022-07-29T16:10:12;10.20;;;3.55;;
18647;SDS011;9453;50.294;18.644;2022-07-29T16:12:39;9.27;;;3.10;;
18647;SDS011;9453;50.294;18.644;2022-07-29T16:15:06;8.13;;;3.22;;
18647;SDS011;9453;50.294;18.644;2022-07-29T16:17:34;11.60;;;3.35;;
18647;SDS011;9453;50.294;18.644;2022-07-29T16:20:02;13.25;;;3.78;;
18647;SDS011;9453;50.294;18.644;2022-07-29T16:22:30;10.43;;;4.82;;
18647;SDS011;9453;50.294;18.644;2022-07-29T16:24:57;13.05;;;5.20;;
18647;SDS011;9453;50.294;18.644;2022-07-29T16:27:25;8.77;;;4.65;;
18647;SDS011;9453;50.294;18.644;2022-07-29T16:29:52;6.70;;;4.80;;
18647;SDS011;9453;50.294;18.644;2022-07-29T16:32:19;7.35;;;4.63;;
18647;SDS011;9453;50.294;18.644;2022-07-29T16:34:47;12.70;;;4.97;;
18647;SDS011;9453;50.294;18.644;2022-07-29T16:37:13;10.45;;;5.00;;
18647;SDS011;9453;50.294;18.644;2022-07-29T16:39:41;14.65;;;5.30;;
18647;SDS011;9453;50.294;18.644;2022-07-29T16:42:08;8.02;;;5.10;;
18647;SDS011;9453;50.294;18.644;2022-07-29T16:44:36;15.77;;;4.95;;
18647;SDS011;9453;50.294;18.644;2022-07-29T16:47:05;12.50;;;4.90;;
18647;SDS011;9453;50.294;18.644;2022-07-29T16:49:32;8.13;;;5.20;;
18647;SDS011;9453;50.294;18.644;2022-07-29T16:51:59;9.68;;;4.95;;
18647;SDS011;9453;50.294;18.644;2022-07-29T16:54:26;9.27;;;4.40;;
18647;SDS011;9453;50.294;18.644;2022-07-29T16:56:53;5.93;;;5.00;;
18647;SDS011;9453;50.294;18.644;2022-07-29T16:59:20;5.53;;;4.50;;
18647;SDS011;9453;50.294;18.644;2022-07-29T17:01:48;5.80;;;4.10;;
18647;SDS011;9453;50.294;18.644;2022-07-29T17:04:15;6.35;;;4.07;;
18647;SDS011;9453;50.294;18.644;2022-07-29T17:06:44;4.75;;;3.75;;
18647;SDS011;9453;50.294;18.644;2022-07-29T17:09:11;7.70;;;4.63;;
18647;SDS011;9453;50.294;18.644;2022-07-29T17:11:39;8.73;;;5.07;;
18647;SDS011;9453;50.294;18.644;2022-07-29T17:14:06;9.55;;;4.47;;
18647;SDS011;9453;50.294;18.644;2022-07-29T17:16:33;10.98;;;5.15;;
18647;SDS011;9453;50.294;18.644;2022-07-29T17:19:02;10.23;;;4.60;;
18647;SDS011;9453;50.294;18.644;2022-07-29T17:21:29;6.85;;;4.47;;
18647;SDS011;9453;50.294;18.644;2022-07-29T17:23:56;7.97;;;4.55;;
18647;SDS011;9453;50.294;18.644;2022-07-29T17:26:23;7.65;;;4.47;;
18647;SDS011;9453;50.294;18.644;2022-07-29T17:28:51;7.93;;;4.82;;
18647;SDS011;9453;50.294;18.644;2022-07-29T17:31:18;6.63;;;4.07;;
18647;SDS011;9453;50.294;18.644;2022-07-29T17:33:45;6.32;;;4.25;;
18647;SDS011;9453;50.294;18.644;2022-07-29T17:36:13;6.88;;;4.05;;
18647;SDS011;9453;50.294;18.644;2022-07-29T17:38:49;5.85;;;4.72;;
18647;SDS011;9453;50.294;18.644;2022-07-29T17:41:17;9.32;;;5.35;;
18647;SDS011;9453;50.294;18.644;2022-07-29T17:43:44;6.90;;;4.68;;
18647;SDS011;9453;50.294;18.644;2022-07-29T17:46:11;12.02;;;5.18;;
18647;SDS011;9453;50.294;18.644;2022-07-29T17:48:38;5.75;;;4.30;;
18647;SDS011;9453;50.294;18.644;2022-07-29T17:51:05;5.57;;;4.13;;
18647;SDS011;9453;50.294;18.644;2022-07-29T17:53:33;8.20;;;4.93;;
18647;SDS011;9453;50.294;18.644;2022-07-29T17:56:01;7.97;;;4.80;;
18647;SDS011;9453;50.294;18.644;2022-07-29T17:58:28;12.93;;;5.38;;
18647;SDS011;9453;50.294;18.644;2022-07-29T18:00:55;8.73;;;5.47;;
18647;SDS011;9453;50.294;18.644;2022-07-29T18:03:22;10.55;;;4.63;;
18647;SDS011;9453;50.294;18.644;2022-07-29T18:05:50;6.03;;;4.22;;
18647;SDS011;9453;50.294;18.644;2022-07-29T18:08:17;5.25;;;4.00;;
18647;SDS011;9453;50.294;18.644;2022-07-29T18:10:46;6.57;;;4.20;;
18647;SDS011;9453;50.294;18.644;2022-07-29T18:13:13;6.57;;;4.32;;
18647;SDS011;9453;50.294;18.644;2022-07-29T18:15:40;6.53;;;4.22;;
18647;SDS011;9453;50.294;18.644;2022-07-29T18:18:08;3.97;;;3.47;;
18647;SDS011;9453;50.294;18.644;2022-07-29T18:20:35;4.60;;;3.75;;
18647;SDS011;9453;50.294;18.644;2022-07-29T18:23:02;4.72;;;3.95;;
18647;SDS011;9453;50.294;18.644;2022-07-29T18:25:30;8.50;;;4.40;;
18647;SDS011;9453;50.294;18.644;2022-07-29T18:27:59;4.75;;;3.75;;
18647;SDS011;9453;50.294;18.644;2022-07-29T18:30:26;4.57;;;3.67;;
18647;SDS011;9453;50.294;18.644;2022-07-29T18:32:53;6.00;;;3.70;;
18647;SDS011;9453;50.294;18.644;2022-07-29T18:35:20;4.82;;;3.47;;
18647;SDS011;9453;50.294;18.644;2022-07-29T18:37:47;7.80;;;3.78;;
18647;SDS011;9453;50.294;18.644;2022-07-29T18:40:17;5.72;;;3.60;;
18647;SDS011;9453;50.294;18.644;2022-07-29T18:42:45;6.82;;;4.13;;
18647;SDS011;9453;50.294;18.644;2022-07-29T18:45:13;7.03;;;3.97;;
18647;SDS011;9453;50.294;18.644;2022-07-29T18:47:40;8.50;;;4.25;;
18647;SDS011;9453;50.294;18.644;2022-07-29T18:50:07;4.53;;;4.00;;
18647;SDS011;9453;50.294;18.644;2022-07-29T18:52:35;5.72;;;3.85;;
18647;SDS011;9453;50.294;18.644;2022-07-29T18:55:02;8.32;;;4.65;;
18647;SDS011;9453;50.294;18.644;2022-07-29T18:57:30;4.88;;;3.97;;
18647;SDS011;9453;50.294;18.644;2022-07-29T18:59:57;5.22;;;4.10;;
18647;SDS011;9453;50.294;18.644;2022-07-29T19:02:25;6.70;;;4.45;;
18647;SDS011;9453;50.294;18.644;2022-07-29T19:04:52;5.75;;;4.25;;
18647;SDS011;9453;50.294;18.644;2022-07-29T19:07:20;7.75;;;4.47;;
18647;SDS011;9453;50.294;18.644;2022-07-29T19:09:49;5.80;;;4.03;;
18647;SDS011;9453;50.294;18.644;2022-07-29T19:12:17;5.35;;;4.10;;
18647;SDS011;9453;50.294;18.644;2022-07-29T19:14:44;6.22;;;4.63;;
18647;SDS011;9453;50.294;18.644;2022-07-29T19:17:11;7.65;;;4.97;;
18647;SDS011;9453;50.294;18.644;2022-07-29T19:19:40;6.38;;;4.55;;
18647;SDS011;9453;50.294;18.644;2022-07-29T19:22:07;6.70;;;5.10;;
18647;SDS011;9453;50.294;18.644;2022-07-29T19:24:34;6.65;;;4.85;;
18647;SDS011;9453;50.294;18.644;2022-07-29T19:27:01;7.80;;;4.97;;
18647;SDS011;9453;50.294;18.644;2022-07-29T19:29:28;7.10;;;4.65;;
18647;SDS011;9453;50.294;18.644;2022-07-29T19:31:56;6.97;;;4.25;;